Time;durP1;ratioP1;P1;durP2;ratioP2;P2;SDS_P1;SDS_P2;PMS_P1;PMS_P2;Temp;Humidity;BMP_temperature;BMP_pressure;BME280_temperature;BME280_humidity;BME280_pressure;Samples;Min_cycle;Max_cycle;Signal;HPM_P1;HPM_P2
2022/04/05 00:01:23;;;;;;;0.10;0.10;;;6.80;99.90;;;;;;5072026;28;20048;-78
2022/04/05 00:03:49;;;;;;;0.10;0.10;;;6.80;99.90;;;;;;5071425;28;20044;-78
2022/04/05 00:06:16;;;;;;;0.10;0.10;;;6.80;99.90;;;;;;5071912;28;20051;-78
2022/04/05 00:08:43;;;;;;;0.10;0.10;;;6.80;99.90;;;;;;5055491;28;20048;-78
2022/04/05 00:11:09;;;;;;;0.10;0.10;;;6.70;99.90;;;;;;5055230;28;20039;-78
2022/04/05 00:13:38;;;;;;;0.10;0.10;;;6.80;99.90;;;;;;5072161;28;20425;-78
2022/04/05 00:16:05;;;;;;;0.10;0.10;;;6.70;99.90;;;;;;5055655;28;20089;-78
2022/04/05 00:18:31;;;;;;;0.57;0.30;;;6.70;99.90;;;;;;5071905;28;20036;-78
2022/04/05 00:20:58;;;;;;;0.10;0.10;;;6.80;99.90;;;;;;5071480;28;20055;-78
2022/04/05 00:23:25;;;;;;;0.25;0.20;;;6.70;99.90;;;;;;5071632;28;20053;-78
2022/04/05 00:25:52;;;;;;;0.10;0.10;;;6.80;99.90;;;;;;5057102;28;20040;-78
2022/04/05 00:28:19;;;;;;;0.10;0.10;;;6.70;99.90;;;;;;5076004;28;20036;-78
2022/04/05 00:30:46;;;;;;;0.10;0.10;;;6.70;99.90;;;;;;5075948;28;20102;-78
2022/04/05 00:33:13;;;;;;;0.10;0.10;;;6.70;99.90;;;;;;5075640;28;20048;-78
2022/04/05 00:35:40;;;;;;;0.10;0.10;;;6.70;99.90;;;;;;5075475;28;20695;-78
2022/04/05 00:38:08;;;;;;;0.10;0.10;;;6.70;99.90;;;;;;5075126;28;20036;-77
2022/04/05 00:40:36;;;;;;;0.10;0.10;;;6.70;99.90;;;;;;5075736;28;20481;-78
2022/04/05 00:43:06;;;;;;;0.10;0.10;;;6.70;99.90;;;;;;5074870;28;20505;-77
2022/04/05 00:45:34;;;;;;;0.10;0.10;;;6.70;99.90;;;;;;5091809;28;20047;-78
2022/04/05 00:48:02;;;;;;;0.10;0.10;;;6.80;99.90;;;;;;5091287;28;20493;-77
2022/04/05 00:50:35;;;;;;;0.10;0.10;;;6.70;99.90;;;;;;5059234;28;20090;-77
2022/04/05 00:53:05;;;;;;;0.10;0.10;;;6.70;99.90;;;;;;5091582;28;20519;-78
2022/04/05 00:55:34;;;;;;;0.10;0.10;;;6.60;99.90;;;;;;5075101;28;20045;-78
2022/04/05 00:58:04;;;;;;;0.10;0.10;;;6.70;99.90;;;;;;5074346;28;20084;-77
2022/04/05 01:00:32;;;;;;;0.10;0.10;;;6.80;99.90;;;;;;5075270;28;20102;-78
2022/04/05 01:03:00;;;;;;;0.10;0.10;;;6.70;99.90;;;;;;5075304;28;20127;-78
2022/04/05 01:05:27;;;;;;;0.10;0.10;;;6.70;99.90;;;;;;5091469;28;20100;-78
2022/04/05 01:07:56;;;;;;;0.10;0.10;;;6.70;99.90;;;;;;5091509;28;20098;-78
2022/04/05 01:10:24;;;;;;;0.10;0.10;;;6.60;99.90;;;;;;5074829;28;20052;-78
2022/04/05 01:12:51;;;;;;;0.10;0.10;;;6.60;99.90;;;;;;5075263;28;20040;-78
2022/04/05 01:15:18;;;;;;;0.10;0.10;;;6.60;99.90;;;;;;5058146;28;20047;-78
2022/04/05 01:17:44;;;;;;;0.10;0.10;;;6.60;99.90;;;;;;5075299;28;20055;-78
2022/04/05 01:20:11;;;;;;;0.10;0.10;;;6.60;99.90;;;;;;5091680;28;20568;-78
2022/04/05 01:22:50;;;;;;;0.10;0.10;;;6.60;99.90;;;;;;5091894;28;20494;-78
2022/04/05 01:25:18;;;;;;;0.10;0.10;;;6.60;99.90;;;;;;5074112;28;20505;-78
2022/04/05 01:27:46;;;;;;;0.10;0.10;;;6.60;99.90;;;;;;5108284;28;20039;-78
2022/04/05 01:30:14;;;;;;;0.10;0.10;;;6.50;99.90;;;;;;5057611;28;20041;-78
2022/04/05 01:32:40;;;;;;;0.10;0.10;;;6.60;99.90;;;;;;5091202;28;20107;-78
2022/04/05 01:35:09;;;;;;;0.10;0.10;;;7.10;99.90;;;;;;5074138;28;20084;-78
2022/04/05 01:37:36;;;;;;;0.10;0.10;;;6.60;99.90;;;;;;5073982;28;20044;-78
2022/04/05 01:40:04;;;;;;;0.10;0.10;;;6.60;99.90;;;;;;5091047;28;20036;-77
2022/04/05 01:42:33;;;;;;;0.10;0.10;;;6.60;99.90;;;;;;5057777;28;20495;-78
2022/04/05 01:45:01;;;;;;;0.10;0.10;;;6.50;99.90;;;;;;5090852;28;20485;-78
2022/04/05 01:47:27;;;;;;;0.20;0.20;;;6.50;99.90;;;;;;5074637;28;20535;-78
2022/04/05 01:49:54;;;;;;;0.10;0.10;;;6.50;99.90;;;;;;5058029;28;20127;-77
2022/04/05 01:52:21;;;;;;;0.10;0.10;;;6.50;99.90;;;;;;5090440;28;20037;-78
2022/04/05 01:54:48;;;;;;;0.10;0.10;;;6.50;99.90;;;;;;5074076;28;20551;-78
2022/04/05 01:57:15;;;;;;;0.10;0.10;;;6.50;99.90;;;;;;5073980;28;20032;-78
2022/04/05 01:59:43;;;;;;;0.10;0.10;;;6.50;99.90;;;;;;5074581;28;20051;-78
2022/04/05 02:02:11;;;;;;;0.10;0.10;;;6.50;99.90;;;;;;5074089;28;20044;-78
2022/04/05 02:04:39;;;;;;;0.10;0.10;;;6.40;99.90;;;;;;5074110;28;20045;-78
2022/04/05 02:07:10;;;;;;;0.10;0.10;;;6.40;99.90;;;;;;5073691;28;20123;-78
2022/04/05 02:09:37;;;;;;;0.10;0.10;;;6.40;99.90;;;;;;5090309;28;20417;-78
2022/04/05 02:12:04;;;;;;;0.10;0.10;;;6.40;99.90;;;;;;5090487;28;20037;-78
2022/04/05 02:14:31;;;;;;;0.10;0.10;;;6.40;99.90;;;;;;5057568;28;20125;-78
2022/04/05 02:16:58;;;;;;;0.10;0.10;;;6.40;99.90;;;;;;5074507;28;20037;-78
2022/04/05 02:19:24;;;;;;;0.10;0.10;;;6.40;99.90;;;;;;5103679;28;20118;-78
2022/04/05 02:21:51;;;;;;;0.10;0.10;;;6.30;99.90;;;;;;5081941;28;20040;-78
2022/04/05 02:24:18;;;;;;;0.10;0.10;;;6.30;99.90;;;;;;5080233;28;20070;-79
2022/04/05 02:26:44;;;;;;;0.10;0.10;;;6.30;99.90;;;;;;5085508;28;20517;-78
2022/04/05 02:29:11;;;;;;;0.10;0.10;;;6.30;99.90;;;;;;5090076;28;20115;-78
2022/04/05 02:31:38;;;;;;;0.10;0.10;;;6.30;99.90;;;;;;5093420;28;20400;-78
2022/04/05 02:34:05;;;;;;;0.10;0.10;;;6.20;99.90;;;;;;5110177;28;20396;-78
2022/04/05 02:36:31;;;;;;;0.10;0.10;;;6.20;99.90;;;;;;5093534;28;20762;-78
2022/04/05 02:38:58;;;;;;;0.10;0.10;;;6.20;99.90;;;;;;5077224;28;20044;-79
2022/04/05 02:41:25;;;;;;;0.10;0.10;;;6.20;99.90;;;;;;5109592;28;20572;-79
2022/04/05 02:43:51;;;;;;;0.08;0.08;;;6.10;99.90;;;;;;5093519;28;20047;-79
2022/04/05 02:46:18;;;;;;;0.10;0.10;;;6.10;99.90;;;;;;5092905;28;20127;-78
2022/04/05 02:48:46;;;;;;;0.10;0.10;;;6.10;99.90;;;;;;5092861;28;20048;-78
2022/04/05 02:51:13;;;;;;;0.10;0.10;;;6.10;99.90;;;;;;5076436;28;20164;-78
2022/04/05 02:53:41;;;;;;;0.10;0.10;;;6.10;99.90;;;;;;5093413;28;20090;-78
2022/04/05 02:56:09;;;;;;;0.10;0.10;;;6.20;99.90;;;;;;5109558;28;20032;-79
2022/04/05 02:58:36;;;;;;;0.10;0.10;;;6.00;99.90;;;;;;5093085;28;20051;-78
2022/04/05 03:01:04;;;;;;;0.10;0.10;;;6.00;99.90;;;;;;5126318;28;20071;-78
2022/04/05 03:03:32;;;;;;;0.10;0.10;;;6.00;99.90;;;;;;5109491;28;20172;-79
2022/04/05 03:05:59;;;;;;;0.10;0.10;;;6.00;99.90;;;;;;5109577;28;20076;-78
2022/04/05 03:08:26;;;;;;;0.10;0.10;;;6.00;99.90;;;;;;5092813;28;20097;-78
2022/04/05 03:10:53;;;;;;;0.10;0.10;;;6.00;99.90;;;;;;5092819;28;20044;-78
2022/04/05 03:13:20;;;;;;;0.10;0.10;;;5.90;99.90;;;;;;5075855;28;20082;-79
2022/04/05 03:15:47;;;;;;;0.10;0.10;;;5.90;99.90;;;;;;5109076;28;20039;-78
2022/04/05 03:18:14;;;;;;;0.10;0.10;;;5.90;99.90;;;;;;5092141;28;20131;-78
2022/04/05 03:20:40;;;;;;;0.10;0.10;;;6.10;99.90;;;;;;5092703;28;20051;-78
2022/04/05 03:23:07;;;;;;;0.10;0.10;;;5.90;99.90;;;;;;5108874;28;20075;-78
2022/04/05 03:25:34;;;;;;;0.10;0.10;;;5.90;99.90;;;;;;5076084;28;20059;-78
2022/04/05 03:28:02;;;;;;;0.10;0.10;;;5.80;99.90;;;;;;5076252;28;20397;-78
2022/04/05 03:30:28;;;;;;;0.10;0.10;;;5.90;99.90;;;;;;5108907;28;20508;-78
2022/04/05 03:32:55;;;;;;;0.10;0.10;;;5.80;99.90;;;;;;5092534;28;20032;-78
2022/04/05 03:35:22;;;;;;;0.10;0.10;;;5.90;99.90;;;;;;5108631;28;20040;-78
2022/04/05 03:37:49;;;;;;;0.10;0.10;;;5.80;99.90;;;;;;5109120;28;20047;-78
2022/04/05 03:40:15;;;;;;;0.10;0.10;;;5.80;99.90;;;;;;5075398;28;20040;-78
2022/04/05 03:42:42;;;;;;;0.10;0.10;;;6.10;99.90;;;;;;5109034;28;20046;-78
2022/04/05 03:45:09;;;;;;;0.10;0.10;;;6.10;99.90;;;;;;5108542;28;20043;-78
2022/04/05 03:47:36;;;;;;;0.13;0.13;;;5.80;99.90;;;;;;5108734;28;20137;-78
2022/04/05 03:50:03;;;;;;;0.10;0.10;;;5.80;99.90;;;;;;5091870;28;20093;-78
2022/04/05 03:52:30;;;;;;;0.10;0.10;;;5.80;99.90;;;;;;5091815;28;20497;-78
2022/04/05 03:54:57;;;;;;;0.10;0.10;;;5.80;99.90;;;;;;5092090;28;20076;-78
2022/04/05 03:57:23;;;;;;;0.10;0.10;;;5.80;99.90;;;;;;5091538;28;20040;-78
2022/04/05 03:59:50;;;;;;;0.17;0.17;;;5.80;99.90;;;;;;5091920;28;20050;-78
2022/04/05 04:02:17;;;;;;;0.10;0.10;;;5.80;99.90;;;;;;5108422;28;20046;-78
2022/04/05 04:04:43;;;;;;;0.10;0.10;;;5.70;99.90;;;;;;5075753;28;20132;-78
2022/04/05 04:07:10;;;;;;;0.10;0.10;;;5.70;99.90;;;;;;5092190;28;20044;-78
2022/04/05 04:09:37;;;;;;;0.20;0.20;;;5.70;99.90;;;;;;5108411;28;20040;-78
2022/04/05 04:12:05;;;;;;;0.20;0.20;;;5.80;99.90;;;;;;5075461;28;20040;-78
2022/04/05 04:14:33;;;;;;;0.10;0.10;;;5.70;99.90;;;;;;5125229;28;20048;-78
2022/04/05 04:17:00;;;;;;;0.10;0.10;;;5.70;99.90;;;;;;5108531;28;20051;-78
2022/04/05 04:19:26;;;;;;;0.10;0.10;;;5.70;99.90;;;;;;5091376;28;20044;-78
2022/04/05 04:21:53;;;;;;;0.13;0.13;;;5.70;99.90;;;;;;5075431;28;20044;-78
2022/04/05 04:24:20;;;;;;;0.20;0.20;;;5.80;99.90;;;;;;5107937;28;20509;-78
2022/04/05 04:26:46;;;;;;;0.10;0.10;;;5.80;99.90;;;;;;5075010;28;20059;-77
2022/04/05 04:29:14;;;;;;;0.10;0.10;;;5.70;99.90;;;;;;5108775;28;20078;-78
2022/04/05 04:31:41;;;;;;;0.10;0.10;;;5.80;99.90;;;;;;5108293;28;20047;-78
2022/04/05 04:34:08;;;;;;;0.10;0.10;;;6.10;99.90;;;;;;5091491;28;20040;-78
2022/04/05 04:36:35;;;;;;;0.10;0.10;;;5.70;99.90;;;;;;5091574;28;20075;-78
2022/04/05 04:39:02;;;;;;;0.10;0.10;;;5.80;99.90;;;;;;5075600;28;20036;-78
2022/04/05 04:41:29;;;;;;;0.10;0.10;;;5.80;99.90;;;;;;5092814;28;20051;-78
2022/04/05 04:43:56;;;;;;;0.10;0.10;;;5.80;99.90;;;;;;5091809;28;20039;-78
2022/04/05 04:46:22;;;;;;;0.10;0.10;;;5.80;99.90;;;;;;5091051;28;20036;-78
2022/04/05 04:48:49;;;;;;;0.10;0.10;;;5.80;99.90;;;;;;5091303;28;20067;-78
2022/04/05 04:51:16;;;;;;;0.10;0.10;;;5.70;99.90;;;;;;5107989;28;20040;-78
2022/04/05 04:53:42;;;;;;;0.10;0.10;;;5.80;99.90;;;;;;5075125;28;20028;-78
2022/04/05 04:56:09;;;;;;;0.10;0.10;;;5.70;99.90;;;;;;5074751;28;20477;-78
2022/04/05 04:58:37;;;;;;;0.10;0.10;;;5.70;99.90;;;;;;5090699;28;20052;-78
2022/04/05 05:01:04;;;;;;;0.10;0.10;;;5.70;99.90;;;;;;5091339;28;20472;-78
2022/04/05 05:03:31;;;;;;;0.10;0.10;;;5.80;99.90;;;;;;5124352;28;20131;-78
2022/04/05 05:05:58;;;;;;;0.10;0.10;;;5.70;99.90;;;;;;5091227;28;20458;-78
2022/04/05 05:08:25;;;;;;;0.10;0.10;;;5.70;99.90;;;;;;5107250;28;20047;-78
2022/04/05 05:10:52;;;;;;;0.10;0.10;;;5.80;99.90;;;;;;5073813;28;20105;-78
2022/04/05 05:13:20;;;;;;;0.10;0.10;;;5.80;99.90;;;;;;5093583;28;20036;-78
2022/04/05 05:15:47;;;;;;;0.10;0.10;;;5.80;99.90;;;;;;5078300;28;20043;-78
2022/04/05 05:18:16;;;;;;;0.10;0.10;;;5.80;99.90;;;;;;5095173;28;20085;-78
2022/04/05 05:20:43;;;;;;;0.10;0.10;;;5.80;99.90;;;;;;5078598;28;20048;-78
2022/04/05 05:23:09;;;;;;;0.10;0.10;;;5.80;99.90;;;;;;5078485;28;20038;-78
2022/04/05 05:25:36;;;;;;;0.10;0.10;;;6.00;99.90;;;;;;5110942;28;20482;-78
2022/04/05 05:28:03;;;;;;;0.10;0.10;;;5.80;99.90;;;;;;5111863;28;20052;-79
2022/04/05 05:30:30;;;;;;;0.10;0.10;;;5.80;99.90;;;;;;5094435;28;20497;-79
2022/04/05 05:32:56;;;;;;;0.10;0.10;;;5.90;99.90;;;;;;5077857;28;20086;-79
2022/04/05 05:35:23;;;;;;;0.10;0.10;;;6.00;99.90;;;;;;5111487;28;20043;-79
2022/04/05 05:37:51;;;;;;;0.10;0.10;;;5.90;99.90;;;;;;5077785;28;20122;-79
2022/04/05 05:40:18;;;;;;;0.10;0.10;;;5.80;99.90;;;;;;5077972;28;20447;-78
2022/04/05 05:43:04;;;;;;;0.10;0.10;;;5.90;99.90;;;;;;5110671;28;20036;-79
2022/04/05 05:45:34;;;;;;;0.10;0.10;;;5.90;99.90;;;;;;5110637;28;20268;-79
2022/04/05 05:48:01;;;;;;;0.10;0.10;;;5.90;99.90;;;;;;5111077;28;20079;-79
2022/04/05 05:50:29;;;;;;;0.10;0.10;;;5.90;99.90;;;;;;5077635;28;20072;-79
2022/04/05 05:52:56;;;;;;;0.10;0.10;;;6.00;99.90;;;;;;5094632;28;20044;-79
2022/04/05 05:55:23;;;;;;;0.08;0.08;;;6.00;99.90;;;;;;5077954;28;20749;-79
2022/04/05 05:57:50;;;;;;;0.10;0.10;;;6.00;99.90;;;;;;5110793;28;20036;-79
2022/04/05 06:00:22;;;;;;;0.10;0.10;;;6.10;99.90;;;;;;5110751;28;20576;-79
2022/04/05 06:02:52;;;;;;;0.10;0.10;;;6.10;99.90;;;;;;5110154;28;20083;-79
2022/04/05 06:05:19;;;;;;;0.10;0.10;;;6.10;99.90;;;;;;5098755;28;20048;-79
2022/04/05 06:07:46;;;;;;;0.10;0.10;;;6.20;99.90;;;;;;5073335;28;20097;-79
2022/04/05 06:10:13;;;;;;;0.10;0.10;;;6.20;99.90;;;;;;5057223;28;20049;-79
2022/04/05 06:12:42;;;;;;;0.13;0.13;;;6.20;99.90;;;;;;5057228;28;20063;-79
2022/04/05 06:15:10;;;;;;;0.10;0.10;;;6.30;99.90;;;;;;5057715;28;20131;-78
2022/04/05 06:17:39;;;;;;;0.10;0.10;;;6.20;99.90;;;;;;5093122;28;20107;-79
2022/04/05 06:20:07;;;;;;;0.10;0.10;;;6.30;99.90;;;;;;5098644;28;20489;-79
2022/04/05 06:22:45;;;;;;;0.10;0.10;;;6.30;99.90;;;;;;5066328;28;20029;-79
2022/04/05 06:25:12;;;;;;;0.10;0.10;;;6.30;99.90;;;;;;5104769;28;20425;-79
2022/04/05 06:27:40;;;;;;;0.10;0.10;;;6.40;99.90;;;;;;5098995;28;20036;-79
2022/04/05 06:30:08;;;;;;;0.10;0.10;;;6.40;99.90;;;;;;5084211;28;20048;-79
2022/04/05 06:32:35;;;;;;;0.10;0.10;;;6.40;99.90;;;;;;5069633;28;20604;-79
2022/04/05 06:35:04;;;;;;;0.10;0.10;;;6.50;99.90;;;;;;5104437;28;20036;-79
2022/04/05 06:37:31;;;;;;;0.10;0.10;;;6.50;99.90;;;;;;5092142;28;20050;-79
2022/04/05 06:39:58;;;;;;;0.10;0.10;;;6.50;99.90;;;;;;5072508;28;20044;-78
2022/04/05 06:42:25;;;;;;;0.10;0.10;;;6.50;99.90;;;;;;5056608;28;20045;-79
2022/04/05 06:44:53;;;;;;;0.10;0.10;;;6.50;99.90;;;;;;5094343;28;20493;-78
2022/04/05 06:47:20;;;;;;;0.10;0.10;;;6.60;99.90;;;;;;5084701;28;20496;-79
2022/04/05 06:49:46;;;;;;;0.05;0.05;;;6.60;99.90;;;;;;5075545;28;20101;-78
2022/04/05 06:52:14;;;;;;;0.10;0.10;;;6.60;99.90;;;;;;5067545;28;20094;-79
2022/04/05 06:54:41;;;;;;;0.10;0.10;;;6.70;99.90;;;;;;5086815;28;20085;-78
2022/04/05 06:57:07;;;;;;;0.10;0.10;;;6.70;99.90;;;;;;5097350;28;20036;-78
2022/04/05 06:59:34;;;;;;;0.10;0.10;;;6.70;99.90;;;;;;5072579;28;20394;-79
2022/04/05 07:02:01;;;;;;;0.05;0.05;;;6.80;99.90;;;;;;5089357;28;20076;-79
2022/04/05 07:04:29;;;;;;;0.10;0.10;;;6.70;99.90;;;;;;5056425;28;20123;-79
2022/04/05 07:06:56;;;;;;;0.10;0.10;;;6.70;99.90;;;;;;5056466;28;20087;-80
2022/04/05 07:09:23;;;;;;;0.10;0.10;;;6.80;99.90;;;;;;5089749;28;20075;-80
2022/04/05 07:11:49;;;;;;;0.10;0.10;;;6.90;99.90;;;;;;5056219;28;20040;-79
2022/04/05 07:14:16;;;;;;;0.10;0.10;;;6.90;99.90;;;;;;5053613;28;20040;-79
2022/04/05 07:16:43;;;;;;;0.10;0.10;;;7.00;99.90;;;;;;5083931;28;20040;-79
2022/04/05 07:19:10;;;;;;;0.00;0.00;;;7.00;99.90;;;;;;5087420;28;20040;-79
2022/04/05 07:21:37;;;;;;;0.10;0.10;;;7.00;99.90;;;;;;5109375;28;20097;-79
2022/04/05 07:24:04;;;;;;;0.10;0.10;;;7.10;99.90;;;;;;5086723;28;20060;-80
2022/04/05 07:26:30;;;;;;;0.10;0.10;;;7.10;99.90;;;;;;5065186;28;20084;-79
2022/04/05 07:28:57;;;;;;;0.10;0.10;;;7.10;99.90;;;;;;5057249;28;20036;-79
2022/04/05 07:31:24;;;;;;;0.10;0.10;;;7.10;99.90;;;;;;5087258;28;20450;-80
2022/04/05 07:33:50;;;;;;;0.10;0.10;;;7.20;99.90;;;;;;5083116;28;20468;-80
2022/04/05 07:36:17;;;;;;;0.10;0.10;;;7.20;99.90;;;;;;5051034;28;20489;-80
2022/04/05 07:38:44;;;;;;;0.10;0.10;;;7.30;99.90;;;;;;5083292;28;20043;-80
2022/04/05 07:41:10;;;;;;;0.10;0.10;;;7.30;99.90;;;;;;5087894;28;20248;-79
2022/04/05 07:43:37;;;;;;;0.10;0.10;;;7.30;99.90;;;;;;5072556;28;20040;-79
2022/04/05 07:46:04;;;;;;;0.10;0.10;;;7.30;99.90;;;;;;5074125;28;20062;-79
2022/04/05 07:48:31;;;;;;;0.10;0.10;;;7.30;99.90;;;;;;5091955;28;20101;-80
2022/04/05 07:51:00;;;;;;;0.05;0.05;;;7.30;99.90;;;;;;5055751;28;20045;-80
2022/04/05 07:53:26;;;;;;;0.10;0.10;;;7.30;99.90;;;;;;5075611;28;20042;-79
2022/04/05 07:55:56;;;;;;;0.10;0.10;;;7.30;99.90;;;;;;5100071;28;20038;-79
2022/04/05 07:58:23;;;;;;;0.00;0.00;;;7.30;99.90;;;;;;5097339;28;20048;-79
2022/04/05 08:00:51;;;;;;;0.10;0.10;;;7.30;99.90;;;;;;5088552;28;20036;-80
2022/04/05 08:03:17;;;;;;;0.10;0.10;;;7.30;99.90;;;;;;5058624;28;20047;-79
2022/04/05 08:05:44;;;;;;;0.10;0.10;;;7.40;99.90;;;;;;5075254;28;20039;-79
2022/04/05 08:08:11;;;;;;;0.10;0.10;;;7.40;99.90;;;;;;5108478;28;20139;-79
2022/04/05 08:10:41;;;;;;;0.10;0.10;;;7.30;99.90;;;;;;5075704;28;20074;-80
2022/04/05 08:13:08;;;;;;;0.10;0.10;;;7.30;99.90;;;;;;5074975;28;20089;-80
2022/04/05 08:15:41;;;;;;;0.10;0.10;;;7.30;99.90;;;;;;5075167;28;20036;-79
2022/04/05 08:18:11;;;;;;;0.10;0.10;;;7.30;99.90;;;;;;5075246;28;20043;-79
2022/04/05 08:20:41;;;;;;;0.10;0.10;;;7.20;99.90;;;;;;5092094;28;20046;-79
2022/04/05 08:23:09;;;;;;;0.10;0.10;;;7.20;99.90;;;;;;5059129;28;20079;-79
2022/04/05 08:25:39;;;;;;;0.10;0.10;;;7.50;99.90;;;;;;5091174;28;20482;-79
2022/04/05 08:28:06;;;;;;;0.10;0.10;;;7.30;99.90;;;;;;5090705;28;20037;-79
2022/04/05 08:30:33;;;;;;;0.10;0.10;;;7.30;99.90;;;;;;5087483;28;20404;-79
2022/04/05 08:33:00;;;;;;;0.10;0.10;;;7.30;99.90;;;;;;5054722;28;20090;-79
2022/04/05 08:35:26;;;;;;;0.10;0.10;;;7.30;99.90;;;;;;5070923;28;20040;-79
2022/04/05 08:37:54;;;;;;;0.10;0.10;;;7.40;99.90;;;;;;5105919;28;20040;-79
2022/04/05 08:40:24;;;;;;;0.10;0.10;;;7.40;99.90;;;;;;5097951;28;20140;-80
2022/04/05 08:42:56;;;;;;;0.10;0.10;;;7.50;99.90;;;;;;5100553;28;20040;-79
2022/04/05 08:45:25;;;;;;;0.10;0.10;;;7.50;99.90;;;;;;5107984;28;20552;-79
2022/04/05 08:47:54;;;;;;;0.10;0.10;;;7.50;99.90;;;;;;5111231;28;20556;-79
2022/04/05 08:50:27;;;;;;;0.10;0.10;;;7.40;99.90;;;;;;5111395;28;20098;-79
2022/04/05 08:52:55;;;;;;;0.10;0.10;;;7.50;99.90;;;;;;5094863;28;20495;-79
2022/04/05 08:55:22;;;;;;;0.10;0.10;;;7.50;99.90;;;;;;5075278;28;20040;-79
2022/04/05 08:57:48;;;;;;;0.00;0.00;;;7.50;99.90;;;;;;5107632;28;20036;-79
2022/04/05 09:00:21;;;;;;;0.10;0.10;;;7.60;99.90;;;;;;5080791;28;20400;-80
2022/04/05 09:02:59;;;;;;;0.10;0.10;;;7.60;99.90;;;;;;5061488;28;20055;-80
2022/04/05 09:05:36;;;;;;;0.10;0.10;;;7.70;99.90;;;;;;5075335;28;20037;-80
2022/04/05 09:08:17;;;;;;;0.10;0.10;;;7.70;99.90;;;;;;5091535;28;20032;-79
2022/04/05 09:10:46;;;;;;;0.10;0.10;;;7.70;99.90;;;;;;5075011;28;20044;-80
2022/04/05 09:13:18;;;;;;;0.10;0.10;;;7.70;99.90;;;;;;5082279;28;20051;-81
2022/04/05 09:15:48;;;;;;;0.10;0.10;;;7.70;99.90;;;;;;5083916;28;20111;-80
2022/04/05 09:18:26;;;;;;;0.10;0.10;;;7.70;99.90;;;;;;5092084;28;20093;-80
2022/04/05 09:20:53;;;;;;;0.10;0.10;;;7.60;99.90;;;;;;5088853;28;20036;-80
2022/04/05 09:23:30;;;;;;;0.10;0.10;;;8.00;99.90;;;;;;5088046;28;20056;-80
2022/04/05 09:26:02;;;;;;;0.10;0.10;;;7.80;99.90;;;;;;5075456;28;20174;-80
2022/04/05 09:28:31;;;;;;;0.03;0.03;;;7.90;99.90;;;;;;5081766;28;20128;-79
2022/04/05 09:31:00;;;;;;;0.10;0.10;;;7.90;99.90;;;;;;5107405;28;20057;-79
2022/04/05 09:33:33;;;;;;;0.10;0.10;;;8.00;99.90;;;;;;5104814;28;20954;-79
2022/04/05 09:36:08;;;;;;;0.10;0.10;;;8.00;99.90;;;;;;5106468;28;20060;-80
2022/04/05 09:38:37;;;;;;;0.10;0.10;;;8.00;99.90;;;;;;5099033;28;20036;-80
2022/04/05 09:41:11;;;;;;;0.00;0.00;;;8.10;99.90;;;;;;5093914;28;20499;-81
2022/04/05 09:43:38;;;;;;;0.05;0.05;;;8.10;99.90;;;;;;5110517;28;20063;-79
2022/04/05 09:46:05;;;;;;;0.10;0.10;;;8.20;99.90;;;;;;5110454;28;20079;-79
2022/04/05 09:48:35;;;;;;;0.10;0.10;;;8.20;99.90;;;;;;5077826;28;20083;-79
2022/04/05 09:51:14;;;;;;;0.10;0.10;;;8.20;99.90;;;;;;5092944;28;20431;-77
2022/04/05 09:53:46;;;;;;;0.10;0.10;;;8.10;99.90;;;;;;5094704;28;20051;-79
2022/04/05 09:56:16;;;;;;;0.10;0.10;;;8.10;99.90;;;;;;5093446;28;20169;-80
2022/04/05 09:58:44;;;;;;;0.10;0.10;;;8.10;99.90;;;;;;5093707;28;20122;-79
2022/04/05 10:01:11;;;;;;;0.08;0.08;;;8.20;99.90;;;;;;5110266;28;20047;-79
2022/04/05 10:03:39;;;;;;;0.10;0.10;;;8.40;99.90;;;;;;5093362;28;20052;-79
2022/04/05 10:06:06;;;;;;;0.10;0.10;;;8.40;99.90;;;;;;5093669;28;20036;-79
2022/04/05 10:08:35;;;;;;;0.10;0.10;;;8.40;99.90;;;;;;5093396;28;20132;-79
2022/04/05 10:11:04;;;;;;;0.10;0.10;;;8.40;99.90;;;;;;5092839;28;20043;-79
2022/04/05 10:13:31;;;;;;;0.10;0.10;;;8.40;99.90;;;;;;5089059;28;20064;-79
2022/04/05 10:16:00;;;;;;;0.10;0.10;;;8.40;99.90;;;;;;5073143;28;20044;-79
2022/04/05 10:18:34;;;;;;;0.10;0.10;;;8.40;99.90;;;;;;5089843;28;20528;-79
2022/04/05 10:21:04;;;;;;;0.10;0.10;;;8.40;99.90;;;;;;5091698;28;20084;-79
2022/04/05 10:23:32;;;;;;;0.08;0.08;;;8.40;99.90;;;;;;5079606;28;20459;-79
2022/04/05 10:25:59;;;;;;;0.10;0.10;;;8.30;99.90;;;;;;5102984;28;20048;-79
2022/04/05 10:28:29;;;;;;;0.10;0.10;;;8.30;99.90;;;;;;5084953;28;20097;-79
2022/04/05 10:31:38;;;;;;;0.10;0.10;;;8.30;99.90;;;;;;5092539;28;20047;-79
2022/04/05 10:34:27;;;;;;;0.10;0.10;;;8.30;99.90;;;;;;5036545;28;20142;-79
2022/04/05 10:37:12;;;;;;;0.10;0.10;;;8.20;99.90;;;;;;5093995;28;20044;-79
2022/04/05 10:39:40;;;;;;;0.10;0.10;;;8.30;99.90;;;;;;5062859;28;20032;-79
2022/04/05 10:42:12;;;;;;;0.10;0.10;;;8.30;99.90;;;;;;5102980;28;20861;-79
2022/04/05 10:44:46;;;;;;;0.10;0.10;;;8.30;99.90;;;;;;5105455;28;20091;-79
2022/04/05 10:47:14;;;;;;;0.10;0.10;;;8.30;99.90;;;;;;5100860;28;20556;-79
2022/04/05 10:49:47;;;;;;;0.03;0.03;;;8.40;99.90;;;;;;5107433;28;20036;-79
2022/04/05 10:52:34;;;;;;;0.10;0.10;;;8.30;99.90;;;;;;5109361;28;20086;-79
2022/04/05 10:55:01;;;;;;;0.10;0.10;;;8.30;99.90;;;;;;5109379;28;20044;-79
2022/04/05 10:57:30;;;;;;;0.10;0.10;;;8.30;99.90;;;;;;5107960;28;20088;-79
2022/04/05 11:00:03;;;;;;;0.00;0.00;;;8.30;99.90;;;;;;5080408;28;20071;-79
2022/04/05 11:02:31;;;;;;;0.10;0.10;;;8.40;99.90;;;;;;5097163;28;20036;-79
2022/04/05 11:05:13;;;;;;;0.10;0.10;;;8.40;99.90;;;;;;5088914;28;20040;-79
2022/04/05 11:07:52;;;;;;;0.00;0.00;;;8.30;99.90;;;;;;5092116;28;20044;-79
2022/04/05 11:10:19;;;;;;;0.10;0.10;;;8.30;99.90;;;;;;5107964;28;20174;-79
2022/04/05 11:12:46;;;;;;;0.10;0.10;;;8.30;99.90;;;;;;5109713;28;20130;-79
2022/04/05 11:15:18;;;;;;;0.05;0.05;;;8.40;99.90;;;;;;5087274;28;20078;-79
2022/04/05 11:17:48;;;;;;;0.10;0.10;;;8.40;99.90;;;;;;5090383;28;20039;-79
2022/04/05 11:20:15;;;;;;;0.00;0.00;;;8.40;99.90;;;;;;5090751;28;20036;-79
2022/04/05 11:22:43;;;;;;;0.10;0.10;;;8.40;99.90;;;;;;5081243;28;20039;-79
2022/04/05 11:25:11;;;;;;;0.00;0.00;;;8.40;99.90;;;;;;5072506;28;20056;-79
2022/04/05 11:27:46;;;;;;;0.10;0.10;;;8.40;99.90;;;;;;5101680;28;20052;-79
2022/04/05 11:30:27;;;;;;;0.05;0.05;;;8.40;99.90;;;;;;5089221;28;20082;-79
2022/04/05 11:33:08;;;;;;;0.10;0.10;;;8.50;99.90;;;;;;5094031;28;20488;-79
2022/04/05 11:35:36;;;;;;;0.00;0.00;;;8.60;99.90;;;;;;5095855;28;20119;-79
2022/04/05 11:38:05;;;;;;;0.10;0.10;;;8.50;99.90;;;;;;5092088;28;20112;-79
2022/04/05 11:40:32;;;;;;;0.00;0.00;;;8.50;99.90;;;;;;5108720;28;20050;-79
2022/04/05 11:43:02;;;;;;;0.10;0.10;;;8.60;99.90;;;;;;5092342;28;20043;-79
2022/04/05 11:45:29;;;;;;;0.03;0.03;;;8.60;99.90;;;;;;5092343;28;20043;-79
2022/04/05 11:47:56;;;;;;;0.08;0.08;;;8.60;99.90;;;;;;5109112;28;20380;-79
2022/04/05 11:50:23;;;;;;;0.03;0.03;;;8.70;99.90;;;;;;5108652;28;20040;-79
2022/04/05 11:52:50;;;;;;;0.10;0.10;;;8.70;99.90;;;;;;5108608;28;20504;-79
2022/04/05 11:58:10;;;;;;;0.10;0.10;;;8.80;99.90;;;;;;5102478;28;20138;-79
2022/04/05 12:00:54;;;;;;;0.10;0.10;;;8.80;99.90;;;;;;5108984;28;20123;-79
2022/04/05 12:03:20;;;;;;;0.10;0.10;;;9.00;99.90;;;;;;5075709;28;20135;-79
2022/04/05 12:05:47;;;;;;;0.00;0.00;;;9.00;99.90;;;;;;5083468;28;20549;-79
2022/04/05 12:08:15;;;;;;;0.10;0.10;;;9.10;99.90;;;;;;5071631;28;20127;-78
2022/04/05 12:10:44;;;;;;;0.08;0.08;;;9.20;99.90;;;;;;5088171;28;20105;-77
2022/04/05 12:13:11;;;;;;;0.10;0.10;;;9.30;99.90;;;;;;5067428;28;20612;-77
2022/04/05 12:15:38;;;;;;;0.10;0.10;;;9.20;99.90;;;;;;5102736;28;20059;-77
2022/04/05 12:18:19;;;;;;;0.08;0.08;;;9.20;99.90;;;;;;5088632;28;20068;-78
2022/04/05 12:21:06;;;;;;;0.00;0.00;;;9.20;99.90;;;;;;5091432;28;20042;-77
2022/04/05 12:23:41;;;;;;;0.10;0.10;;;9.20;99.90;;;;;;5088647;28;20068;-78
2022/04/05 12:26:11;;;;;;;0.10;0.10;;;9.20;99.90;;;;;;5092141;28;20044;-78
2022/04/05 12:28:40;;;;;;;0.10;0.10;;;9.20;99.90;;;;;;5097872;28;20048;-77
2022/04/05 12:31:17;;;;;;;0.10;0.10;;;9.40;99.90;;;;;;5092364;28;20044;-78
2022/04/05 12:33:57;;;;;;;0.03;0.03;;;9.50;99.90;;;;;;5093010;28;20044;-77
2022/04/05 12:36:26;;;;;;;0.00;0.00;;;9.60;99.90;;;;;;5095393;28;20404;-78
2022/04/05 12:38:52;;;;;;;0.10;0.10;;;9.70;99.90;;;;;;5108284;28;20166;-77
2022/04/05 12:41:21;;;;;;;0.00;0.00;;;9.80;99.90;;;;;;5072302;28;20123;-77
2022/04/05 12:44:12;;;;;;;0.00;0.00;;;9.80;99.90;;;;;;5077564;28;20573;-78
2022/04/05 12:47:03;;;;;;;0.00;0.00;;;9.80;99.90;;;;;;5094666;28;20047;-77
2022/04/05 12:49:34;;;;;;;0.08;0.08;;;9.80;99.90;;;;;;5075605;28;20048;-83
2022/04/05 12:52:07;;;;;;;0.10;0.10;;;9.80;99.90;;;;;;5093241;28;20041;-82
2022/04/05 12:54:35;;;;;;;0.00;0.00;;;9.80;99.90;;;;;;5092206;28;20192;-84
2022/04/05 12:57:21;;;;;;;0.00;0.00;;;9.90;99.90;;;;;;5070582;28;20041;-83
2022/04/05 12:59:50;;;;;;;0.00;0.00;;;9.90;99.90;;;;;;5075988;28;20105;-83
2022/04/05 13:02:22;;;;;;;0.00;0.00;;;9.80;99.90;;;;;;5092235;28;20049;-84
2022/04/05 13:04:50;;;;;;;0.10;0.10;;;9.90;99.90;;;;;;5092664;28;20382;-84
2022/04/05 13:07:16;;;;;;;0.00;0.00;;;9.80;99.90;;;;;;5076066;28;20078;-83
2022/04/05 13:09:44;;;;;;;0.10;0.10;;;9.70;99.90;;;;;;5059201;28;20091;-82